Flight Track Log - Related Links

Times and Time Zones

All times are in EDT time to prevent confusion due to time zone crossing. See the KAP927 flight status page for this flight to view local times or setup timezone preferences in your user account.

Time Position Orientation Groundspeed Altitude Reporting Facility
EDT Latitude Longitude Course Direction KTS MPH feet Rate Location/Type
Wed 06:51:44 PM 42.7361 -73.8083 329° Northwest 99 114 900  Level Boston Center
Wed 06:52:27 PM 42.7153 -73.8078 179° South 106 122 1,200 557 Climbing Boston Center
Wed 06:53:21 PM 42.7147 -73.8500 269° West 123 142 1,800 626 Climbing Boston Center
Wed 06:54:22 PM 42.7372 -73.8847 311° West 127 146 2,400 645 Climbing Boston Center
Wed 06:55:22 PM 42.7661 -73.9022 336° Northwest 116 133 3,100 576 Climbing Boston Center
Wed 06:56:27 PM 42.7992 -73.9286 330° Northwest 126 145 3,600 524 Climbing Boston Center
Wed 06:57:00 PM 42.9429 -73.9631 329° Northwest  Level Estimated
Wed 06:57:28 PM 42.8300 -73.9547 328° Northwest 132 152 4,200  Level Boston Center
Wed 06:58:44 PM 42.8692 -73.9839 331° Northwest 136 157 4,900 537 Climbing Boston Center
Wed 06:59:42 PM 42.9044 -74.0133 329° Northwest 137 158 5,400 536 Climbing Boston Center
Wed 07:00:36 PM 42.9353 -74.0367 331° Northwest 137 158 5,900 509 Climbing Boston Center
Wed 07:01:28 PM 42.9600 -74.0572 329° Northwest 136 157 6,300 536 Climbing Boston Center
Wed 07:02:28 PM 42.9908 -74.0836 328° Northwest 134 154 6,900 567 Climbing Boston Center
Wed 07:03:35 PM 43.0281 -74.1131 330° Northwest 130 150 7,500 472 Climbing Boston Center
Wed 07:04:35 PM 43.0589 -74.1367 331° Northwest 133 153 7,900 198 Climbing Boston Center
Wed 07:05:36 PM 43.0958 -74.1661 330° Northwest 155 178 7,900 40 Level Boston Center
Wed 07:07:06 PM 43.1556 -74.2103 332° Northwest 170 196 8,000  Climbing Boston Center
Wed 07:08:07 PM 43.1906 -74.2428 326° Northwest 164 189 7,900 -50 Descending Boston Center
Wed 07:09:07 PM 43.2339 -74.2753 331° Northwest 164 189 7,900  Level Boston Center
Wed 07:10:05 PM 43.2667 -74.3050 327° Northwest 164 189 7,900  Level Boston Center
Wed 07:11:05 PM 43.3100 -74.3347 333° Northwest 164 189 7,900  Level Boston Center
Wed 07:12:06 PM 43.3428 -74.3644 327° Northwest 164 189 7,900  Level Boston Center
Wed 07:13:06 PM 43.3842 -74.3942 332° Northwest 164 189 7,900  Level Boston Center
Wed 07:14:07 PM 43.4211 -74.4239 330° Northwest 164 189 7,900 51 Level Boston Center
Wed 07:15:04 PM 43.4558 -74.4536 328° Northwest 164 189 8,000 51 Climbing Boston Center
Wed 07:16:05 PM 43.4908 -74.4836 328° Northwest 159 183 8,000 -50 Level Boston Center
Wed 07:17:05 PM 43.5278 -74.5106 332° Northwest 159 183 7,900  Descending Boston Center
Wed 07:18:06 PM 43.5647 -74.5406 330° Northwest 159 183 8,000  Climbing Boston Center
Wed 07:19:06 PM 43.5997 -74.5703 328° Northwest 159 183 7,900  Descending Boston Center
Wed 07:20:06 PM 43.6367 -74.6003 330° Northwest 159 183 8,000 50 Climbing Boston Center
Wed 07:21:07 PM 43.6717 -74.6272 331° Northwest 159 183 8,000 -51 Level Boston Center
Wed 07:22:04 PM 43.7086 -74.6575 329° Northwest 154 177 7,900 -51 Descending Boston Center
Wed 07:23:05 PM 43.7456 -74.6847 332° Northwest 154 177 7,900  Level Boston Center
Wed 07:24:05 PM 43.7783 -74.7147 327° Northwest 149 171 7,900 50 Level Boston Center
Wed 07:25:06 PM 43.8131 -74.7419 331° Northwest 149 171 8,000 49 Climbing Boston Center
Wed 07:26:07 PM 43.8500 -74.7722 329° Northwest 149 171 8,000 -50 Level Boston Center
Wed 07:27:07 PM 43.8850 -74.8022 328° Northwest 149 171 7,900  Descending Boston Center
Wed 07:28:05 PM 43.9219 -74.8297 332° Northwest 149 171 8,000 50 Climbing Boston Center
Wed 07:29:06 PM 43.9567 -74.8569 331° Northwest 149 171 8,000  Level Boston Center
Wed 07:30:07 PM 43.9914 -74.8872 328° Northwest 149 171 8,000  Level Boston Center
Wed 07:31:07 PM 44.0264 -74.9175 328° Northwest 149 171 8,000  Level Boston Center
Wed 07:32:05 PM 44.0611 -74.9450 330° Northwest 149 171 8,000  Level Boston Center
Wed 07:33:05 PM 44.0978 -74.9783 327° Northwest 149 171 8,000 -200 Level Boston Center
Wed 07:34:05 PM 44.1389 -75.0092 332° Northwest 154 177 7,600 -446 Descending Boston Center
Wed 07:35:06 PM 44.1778 -75.0397 331° Northwest 154 177 7,100 -496 Descending Boston Center
Wed 07:36:06 PM 44.2208 -75.0733 331° Northwest 166 191 6,600 -496 Descending Boston Center
Wed 07:37:07 PM 44.2636 -75.1072 330° Northwest 171 197 6,100 -446 Descending Boston Center
Wed 07:38:07 PM 44.3003 -75.1436 325° Northwest 165 190 5,700 -410 Descending Boston Center
Wed 07:39:04 PM 44.3433 -75.1775 331° Northwest 165 190 5,300 -421 Descending Boston Center

Login

Don't have an account? Register now (free) for customized features, flight alerts, and more!